• Join FlightAware (Why Join?)
  • Login
  • US Flag 
09:50AM EDT


 

Airport Tracker/Info


-or-


 

Live Flight TrackerFlight Track Log ✈ EJA729 ✈ 25-Jun-2013 ✈ KSAN - KOAK

Flight Track Log - Related Links

Times and Time Zones

All times are in EDT time to prevent confusion due to time zone crossing. See the EJA729 flight status page for this flight to view local times or setup timezone preferences in your user account.

Time Position Orientation Groundspeed Altitude Reporting Facility
EDT Latitude Longitude Course Direction KTS MPH feet Rate Location/Type
12:31PM 32.7519 -117.2297 303° West 200 230 2,400  Level Los Angeles Center
12:32PM 32.7906 -117.3017 303° West 234 269 5,500 2,880 Climbing Los Angeles Center
12:34PM 32.8283 -117.3725 302° West 250 288 8,500 2,820 Climbing Los Angeles Center
12:35PM 32.8742 -117.4544 304° West 291 335 11,400 2,820 Climbing Los Angeles Center
12:36PM 32.9686 -117.5381 323° Northwest 365 420 14,400 2,640 Climbing Los Angeles Center
12:37PM 33.0461 -117.6247 317° Northwest 381 438 16,900 2,340 Climbing Los Angeles Center
12:38PM 33.1122 -117.7322 306° West 398 458 19,300 2,160 Climbing Los Angeles Center
12:39PM 33.1825 -117.8383 308° West 405 466 21,400 1,740 Climbing Los Angeles Center
12:40PM 33.2633 -117.9408 313° West 419 482 23,000 1,620 Climbing Los Angeles Center
12:41PM 33.3647 -118.0694 313° West 438 504 24,800 1,560 Climbing Los Angeles Center
12:42PM 33.4519 -118.1797 313° West 451 519 26,300 1,440 Climbing Los Angeles Center
12:43PM 33.5547 -118.2664 325° Northwest 460 529 27,800 1,440 Climbing Los Angeles Center
12:44PM 33.6769 -118.3203 340° North 463 533 29,400 1,500 Climbing Los Angeles Center
12:45PM 33.8158 -118.3808 340° North 474 545 31,000 1,500 Climbing Los Angeles Center
12:46PM 33.9364 -118.4333 340° North 472 543 32,500 1,440 Climbing Los Angeles Center
12:47PM 34.0556 -118.4900 338° Northwest 464 534 34,000 1,440 Climbing Los Angeles Center
12:48PM 34.1736 -118.5503 337° Northwest 463 533 35,500 1,440 Climbing Los Angeles Center
12:49PM 34.2908 -118.6081 338° Northwest 458 527 37,000 1,200 Climbing Los Angeles Center
12:50PM 34.4294 -118.6761 338° Northwest 448 516 38,000 480 Climbing Los Angeles Center
12:51PM 34.5489 -118.7353 338° Northwest 461 531 38,000  Level Los Angeles Center
12:52PM 34.6700 -118.7950 338° Northwest 469 540 38,000  Level Los Angeles Center
12:53PM 34.7914 -118.8578 337° Northwest 473 544 38,000  Level Los Angeles Center
12:54PM 34.9058 -118.9592 324° Northwest 466 536 38,000  Level Los Angeles Center
12:55PM 35.0061 -119.0578 321° Northwest 462 532 38,000  Level Los Angeles Center
12:56PM 35.1075 -119.1550 322° Northwest 463 533 38,000  Level Los Angeles Center
12:57PM 35.2075 -119.2519 322° Northwest 462 532 38,000  Level Los Angeles Center
12:58PM 35.3058 -119.3508 321° Northwest 457 526 38,000  Level Los Angeles Center
12:59PM 35.4261 -119.4686 321° Northwest 459 528 38,000  Level Los Angeles Center
01:00PM 35.5239 -119.5653 321° Northwest 456 525 38,000  Level Los Angeles Center
01:01PM 35.6211 -119.6633 321° Northwest 453 521 38,000  Level Los Angeles Center
01:02PM 35.6967 -119.7367 322° Northwest 452 520 38,000  Level Oakland Center
01:03PM 35.7953 -119.8364 321° Northwest 459 528 38,000  Level Oakland Center
01:04PM 35.8919 -119.9319 321° Northwest 454 522 38,000  Level Oakland Center
01:05PM 36.0078 -120.0497 321° Northwest 452 520 38,000  Level Oakland Center
01:06PM 36.1053 -120.1517 320° Northwest 459 528 38,000 -60 Level Oakland Center
01:07PM 36.2011 -120.2461 322° Northwest 449 517 37,900 -900 Descending Oakland Center
01:08PM 36.2972 -120.3450 320° Northwest 449 517 36,200 -1,320 Descending Oakland Center
01:09PM 36.3886 -120.4422 319° Northwest 440 506 35,200 -1,560 Descending Oakland Center
01:10PM 36.4822 -120.5336 322° Northwest 433 498 33,100 -2,520 Descending Oakland Center
01:11PM 36.5747 -120.6303 320° Northwest 435 501 30,100 -2,940 Descending Oakland Center
01:12PM 36.6675 -120.7314 319° Northwest 441 507 27,100 -2,520 Descending Oakland Center
01:13PM 36.8008 -120.8111 334° Northwest 452 520 25,000 -2,160 Descending Oakland Center
01:15PM 36.9133 -120.8436 347° North 450 518 22,800 -2,880 Descending Oakland Center
01:16PM 37.0500 -120.8833 347° North 432 497 19,000 -3,120 Descending Northern Cal TRACON
01:17PM 37.1422 -120.9247 340° North 420 483 16,500 -3,180 Descending Oakland Center
01:18PM 37.2469 -120.9608 345° North 395 455 12,700 -2,880 Descending Oakland Center
01:19PM 37.3397 -120.9950 344° North 353 406 10,700 -1,860 Descending Oakland Center
01:20PM 37.4167 -121.0500 330° Northwest 291 335 9,000 -960 Descending Northern Cal TRACON
01:20PM 37.4667 -121.1167 313° West 293 337 9,000  Level Northern Cal TRACON
01:21PM 37.5167 -121.2000 307° West 292 336 9,000  Level Northern Cal TRACON
01:22PM 37.5667 -121.2833 307° West 295 339 9,000 -300 Level Northern Cal TRACON
01:23PM 37.6167 -121.3500 313° West 289 333 8,500 -540 Descending Northern Cal TRACON
01:24PM 37.6667 -121.4333 307° West 287 330 8,000 -300 Descending Northern Cal TRACON
01:25PM 37.7167 -121.5167 307° West 293 337 8,000  Level Northern Cal TRACON
01:26PM 37.7667 -121.6000 307° West 282 325 8,000  Level Northern Cal TRACON
01:27PM 37.8000 -121.6833 297° West 287 330 8,000 -480 Level Northern Cal TRACON
01:28PM 37.8333 -121.7667 297° West 276 318 7,100 -1,020 Descending Northern Cal TRACON
01:29PM 37.8667 -121.8500 297° West 257 296 6,000 -660 Descending Northern Cal TRACON
01:30PM 37.9000 -121.9167 302° West 265 305 5,800 -540 Descending Northern Cal TRACON
01:31PM 37.9167 -122.0000 284° West 225 259 5,000 -600 Descending Northern Cal TRACON
01:32PM 37.9147 -122.0378 266° West 228 262 4,900 -900 Descending Oakland Center
01:33PM 37.9244 -122.1083 280° West 211 243 3,700 -900 Descending Oakland Center
01:34PM 37.9394 -122.1786 285° West 205 236 3,100 -360 Descending Oakland Center
01:35PM 37.9328 -122.2428 263° West 194 223 3,000 -60 Descending Oakland Center
01:36PM 37.9153 -122.3067 251° West 192 221 3,000  Level Oakland Center
01:37PM 37.8936 -122.3725 247° West 197 227 3,000 -420 Level Oakland Center
01:38PM 37.8444 -122.4017 205° Southwest 191 220 2,200 -600 Descending Oakland Center
01:39PM 37.8036 -122.3675 147° Southeast 186 214 1,800 -360 Descending Oakland Center
01:40PM 37.7667 -122.3167 133° Southeast 133 153 1,400 -600 Descending Northern Cal TRACON
01:41PM 37.7500 -122.2833 122° Southeast 135 155 600 -660 Descending Northern Cal TRACON
01:42PM 37.7167 -122.2500 142° Southeast 137 158 200 -420 Descending Northern Cal TRACON